createdAt,value
2022-10-10T00:00:03.181Z,84.4
2022-10-10T00:15:02.605Z,84.7
2022-10-10T00:30:03.047Z,85.2
2022-10-10T00:45:02.464Z,85.2
2022-10-10T01:00:03.068Z,85.5
2022-10-10T01:15:02.337Z,86.5
2022-10-10T01:30:02.799Z,86.4
2022-10-10T01:45:03.211Z,87.0
2022-10-10T02:00:02.679Z,86.8
2022-10-10T02:15:03.124Z,87.2
2022-10-10T02:30:02.520Z,88.4
2022-10-10T02:45:03.093Z,88.4
2022-10-10T03:00:02.428Z,89.1
2022-10-10T03:15:04.384Z,90.4
2022-10-10T03:30:02.275Z,91.1
2022-10-10T03:45:02.754Z,91.4
2022-10-10T04:00:03.164Z,91.1
2022-10-10T04:15:02.603Z,91.3
2022-10-10T04:30:03.094Z,91.2
2022-10-10T04:45:02.501Z,91.1
2022-10-10T05:00:03.108Z,91.0
2022-10-10T05:15:02.409Z,91.1
2022-10-10T05:30:02.841Z,91.1
2022-10-10T05:45:03.243Z,91.6
2022-10-10T06:00:02.691Z,91.8
2022-10-10T06:15:03.168Z,91.6
2022-10-10T06:30:02.611Z,91.6
2022-10-10T06:45:03.128Z,91.5
2022-10-10T07:00:02.465Z,91.5
2022-10-10T07:15:03.135Z,91.6
2022-10-10T07:30:02.380Z,91.7
2022-10-10T07:45:02.804Z,92.1
2022-10-10T08:00:03.277Z,92.3
2022-10-10T08:15:02.773Z,92.6
2022-10-10T08:30:02.192Z,92.9
2022-10-10T08:45:02.587Z,92.8
2022-10-10T09:00:03.150Z,89.5
2022-10-10T09:15:02.961Z,86.0
2022-10-10T09:30:03.083Z,80.7
2022-10-10T09:45:02.346Z,74.4
2022-10-10T10:00:04.670Z,67.4
2022-10-10T10:15:02.243Z,63.6
2022-10-10T10:30:02.649Z,58.1
2022-10-10T10:45:03.219Z,56.1
2022-10-10T11:00:26.568Z,55.8
2022-10-10T11:15:03.153Z,55.7
2022-10-10T11:30:02.423Z,53.5
2022-10-10T11:45:02.891Z,56.0
2022-10-10T12:00:02.288Z,58.1
2022-10-10T12:15:02.755Z,59.4
2022-10-10T12:30:03.231Z,59.0
2022-10-10T12:45:02.645Z,58.9
2022-10-10T13:00:03.195Z,57.4
2022-10-10T13:15:02.537Z,57.2
2022-10-10T13:30:03.196Z,59.2
2022-10-10T13:45:02.411Z,59.5
2022-10-10T14:00:02.869Z,59.3
2022-10-10T14:15:02.298Z,59.9
2022-10-10T14:30:02.754Z,60.5
2022-10-10T14:45:03.359Z,62.8
2022-10-10T15:00:02.663Z,65.0
2022-10-10T15:15:03.199Z,68.1
2022-10-10T15:30:02.548Z,72.3
2022-10-10T15:45:03.181Z,76.2
2022-10-10T16:00:02.418Z,79.7
2022-10-10T16:15:06.885Z,81.7
2022-10-10T16:30:03.293Z,84.4
2022-10-10T16:45:02.721Z,85.9
2022-10-10T17:00:03.240Z,88.6
2022-10-10T17:15:02.563Z,89.2
2022-10-10T17:30:03.240Z,89.1
2022-10-10T17:45:02.475Z,89.7
2022-10-10T18:00:02.924Z,90.0
2022-10-10T18:15:02.319Z,90.2
2022-10-10T18:30:02.771Z,90.4
2022-10-10T18:45:03.262Z,90.5
2022-10-10T19:00:02.648Z,90.9
2022-10-10T19:15:03.239Z,91.2
2022-10-10T19:30:02.529Z,91.0
2022-10-10T19:45:02.969Z,91.2
2022-10-10T20:00:02.411Z,91.6
2022-10-10T20:15:02.855Z,91.8
2022-10-10T20:30:02.275Z,92.1
2022-10-10T20:45:02.721Z,91.9
2022-10-10T21:00:03.284Z,91.9
2022-10-10T21:15:02.592Z,92.2
2022-10-10T21:30:03.022Z,92.3
2022-10-10T21:45:02.450Z,92.8
2022-10-10T22:00:02.917Z,93.4
2022-10-10T22:15:03.360Z,93.2
2022-10-10T22:30:02.790Z,93.5
2022-10-10T22:45:03.276Z,93.3
2022-10-10T23:00:02.828Z,92.8
2022-10-10T23:15:03.312Z,93.0
2022-10-10T23:30:02.559Z,93.3
2022-10-10T23:45:02.987Z,93.8
